Time;durP1;ratioP1;P1;durP2;ratioP2;P2;SDS_P1;SDS_P2;PMS_P1;PMS_P2;Temp;Humidity;BMP_temperature;BMP_pressure;BME280_temperature;BME280_humidity;BME280_pressure;Samples;Min_cycle;Max_cycle;Signal;HPM_P1;HPM_P2
2023/04/13 00:00:07;;;;;;;104.20;41.40;;;;;;;6.43;64.49;97836.97;67976;1276;1016323;-71
2023/04/13 00:03:31;;;;;;;85.60;33.80;;;;;;;6.43;63.82;97830.35;68018;1259;1016205;-71
2023/04/13 00:06:32;;;;;;;62.80;27.10;;;;;;;6.49;63.74;97827.22;68013;1275;1016223;-71
2023/04/13 00:09:33;;;;;;;51.90;20.30;;;;;;;6.44;63.65;97821.59;67904;1276;1015603;-71
2023/04/13 00:12:34;;;;;;;44.40;18.80;;;;;;;6.34;63.60;97811.95;68064;1275;1016465;-71
2023/04/13 00:15:35;;;;;;;52.30;23.50;;;;;;;6.34;63.53;97807.99;67979;1275;1016951;-71
2023/04/13 00:18:36;;;;;;;46.70;20.40;;;;;;;6.17;63.71;97805.15;68044;1276;1016446;-71
2023/04/13 00:21:40;;;;;;;47.00;19.50;;;;;;;6.11;64.02;97801.53;67968;1276;1015644;-58
2023/04/13 00:24:42;;;;;;;41.30;16.80;;;;;;;6.09;63.85;97793.48;67894;1275;1016304;-71
2023/04/13 00:27:43;;;;;;;37.70;17.00;;;;;;;6.13;64.05;97788.02;67938;1275;1016215;-72
2023/04/13 00:30:45;;;;;;;63.70;25.90;;;;;;;6.14;64.37;97793.33;68032;1275;1016373;-71
2023/04/13 00:33:46;;;;;;;66.40;25.60;;;;;;;6.15;64.44;97793.83;67981;1275;1016435;-71
2023/04/13 00:36:47;;;;;;;57.20;25.10;;;;;;;6.21;64.32;97793.97;68016;1275;1016519;-71
2023/04/13 00:39:49;;;;;;;57.10;23.30;;;;;;;6.16;64.92;97797.20;68020;1275;1016152;-74
2023/04/13 00:42:50;;;;;;;50.50;23.40;;;;;;;6.20;64.54;97793.36;67983;1275;1016425;-71
2023/04/13 00:45:51;;;;;;;52.00;21.50;;;;;;;6.22;64.16;97792.36;67975;1275;1016412;-71
2023/04/13 00:48:54;;;;;;;36.20;14.90;;;;;;;6.01;64.05;97794.48;68004;1275;1016161;-71
2023/04/13 00:51:55;;;;;;;31.50;13.50;;;;;;;5.94;64.37;97788.40;67985;1275;1016425;-72
2023/04/13 00:54:56;;;;;;;37.50;15.80;;;;;;;5.87;65.35;97786.75;68010;1275;1016342;-74
2023/04/13 00:57:57;;;;;;;36.00;14.40;;;;;;;5.95;65.37;97779.16;67974;1275;1015764;-74
2023/04/13 01:00:58;;;;;;;42.90;17.70;;;;;;;5.96;64.98;97772.34;68025;1275;1016454;-74
2023/04/13 01:03:59;;;;;;;71.80;27.10;;;;;;;5.89;65.22;97767.38;67951;1275;1016456;-71
2023/04/13 01:07:00;;;;;;;61.10;24.20;;;;;;;5.94;65.71;97767.41;68040;1275;1016490;-71
2023/04/13 01:10:01;;;;;;;55.60;22.60;;;;;;;6.08;66.50;97762.98;67990;1275;1015722;-69
2023/04/13 01:13:03;;;;;;;48.00;20.30;;;;;;;6.10;66.47;97765.15;68038;1275;1016243;-68
2023/04/13 01:16:04;;;;;;;42.30;17.40;;;;;;;6.09;66.51;97767.24;67991;1275;1015833;-71
2023/04/13 01:19:05;;;;;;;38.70;17.10;;;;;;;5.98;66.61;97768.75;67973;1275;1016449;-71
2023/04/13 01:22:06;;;;;;;38.20;17.00;;;;;;;5.84;66.98;97770.42;67979;1275;1016639;-71
2023/04/13 01:25:07;;;;;;;43.40;18.70;;;;;;;5.80;67.88;97772.90;67919;1275;1016460;-71
2023/04/13 01:28:08;;;;;;;39.80;18.20;;;;;;;5.87;68.25;97775.79;68027;1275;1017216;-71
2023/04/13 01:31:10;;;;;;;41.80;18.40;;;;;;;6.04;68.44;97777.42;67972;1275;1016314;-69
2023/04/13 01:34:11;;;;;;;46.50;19.60;;;;;;;6.15;68.91;97782.16;67975;1275;1016398;-71
2023/04/13 01:37:12;;;;;;;45.70;20.60;;;;;;;6.21;68.55;97785.80;68016;1275;1016910;-72
2023/04/13 01:40:13;;;;;;;43.80;18.80;;;;;;;6.22;68.65;97783.15;67981;1275;1016194;-71
2023/04/13 01:43:14;;;;;;;49.20;21.50;;;;;;;6.30;67.99;97784.40;67990;1275;1016454;-69
2023/04/13 01:46:15;;;;;;;52.50;23.40;;;;;;;6.36;68.05;97787.55;67949;1275;1016304;-71
2023/04/13 01:49:17;;;;;;;46.00;20.60;;;;;;;6.40;67.85;97788.83;67980;1275;1016464;-71
2023/04/13 01:52:19;;;;;;;48.90;20.90;;;;;;;6.46;68.04;97790.60;68019;1275;1015757;-71
2023/04/13 01:55:20;;;;;;;48.30;21.90;;;;;;;6.48;67.91;97788.35;68016;1275;1018790;-71
2023/04/13 01:58:22;;;;;;;43.10;19.70;;;;;;;6.52;67.97;97790.20;67978;1276;1016341;-71
2023/04/13 02:01:24;;;;;;;44.90;20.10;;;;;;;6.56;68.31;97793.98;67941;1275;1017881;-71
2023/04/13 02:04:25;;;;;;;46.90;20.00;;;;;;;6.53;67.23;97797.41;67958;1275;1016079;-68
2023/04/13 02:07:26;;;;;;;49.10;19.60;;;;;;;6.46;68.17;97797.71;67893;1276;1138075;-71
2023/04/13 02:10:27;;;;;;;43.30;19.40;;;;;;;6.39;67.94;97798.64;68009;1275;1016441;-74
2023/04/13 02:13:28;;;;;;;43.60;19.00;;;;;;;6.40;67.39;97800.13;68000;1276;1016314;-71
2023/04/13 02:16:29;;;;;;;70.30;30.40;;;;;;;6.48;67.59;97799.83;67938;1275;1016532;-72
2023/04/13 02:19:30;;;;;;;68.00;31.00;;;;;;;6.57;67.44;97802.20;68038;1276;1016329;-72
2023/04/13 02:22:31;;;;;;;59.60;26.00;;;;;;;6.57;67.49;97804.67;67967;1276;1016431;-72
2023/04/13 02:25:32;;;;;;;57.10;26.00;;;;;;;6.53;67.63;97809.79;68037;1276;1016437;-69
2023/04/13 02:28:33;;;;;;;71.00;28.90;;;;;;;6.64;67.89;97807.59;67953;1276;1016388;-72
2023/04/13 02:31:34;;;;;;;56.60;23.40;;;;;;;6.67;67.84;97805.98;68005;1276;1015953;-72
2023/04/13 02:34:35;;;;;;;56.30;26.90;;;;;;;6.62;68.05;97809.73;67961;1276;1016481;-72
2023/04/13 02:37:38;;;;;;;52.70;23.90;;;;;;;6.64;68.15;97811.88;68006;1276;1015864;-72
2023/04/13 02:40:41;;;;;;;50.00;22.40;;;;;;;6.72;68.40;97814.19;67931;1276;1016467;-72
2023/04/13 02:43:42;;;;;;;59.10;25.40;;;;;;;6.66;67.82;97815.08;67995;1276;1016409;-72
2023/04/13 02:46:44;;;;;;;49.40;22.90;;;;;;;6.61;68.04;97817.98;68001;1275;1016390;-71
2023/04/13 02:49:45;;;;;;;39.50;18.00;;;;;;;6.56;67.91;97814.10;68006;1276;1016440;-72
2023/04/13 02:52:46;;;;;;;38.50;16.90;;;;;;;6.41;67.95;97810.48;67961;1276;1019322;-68
2023/04/13 02:55:49;;;;;;;35.80;15.50;;;;;;;6.39;68.15;97808.52;68024;1276;1015731;-71
2023/04/13 02:58:50;;;;;;;44.70;19.20;;;;;;;6.22;69.11;97806.23;67961;1276;1016421;-69
2023/04/13 03:01:51;;;;;;;62.00;24.20;;;;;;;6.11;70.17;97806.36;67931;1276;1016399;-72
2023/04/13 03:04:53;;;;;;;53.60;22.20;;;;;;;6.13;69.90;97802.75;67971;1276;1015920;-70
2023/04/13 03:07:55;;;;;;;46.60;21.30;;;;;;;6.22;69.46;97800.86;67966;1276;1015991;-67
2023/04/13 03:10:56;;;;;;;46.90;21.60;;;;;;;6.28;69.36;97799.83;68017;1276;1016159;-71
2023/04/13 03:13:59;;;;;;;47.20;22.70;;;;;;;6.21;70.44;97793.60;67959;1276;1016209;-72
2023/04/13 03:17:00;;;;;;;47.40;22.20;;;;;;;6.35;70.34;97791.42;67993;1275;1016491;-72
2023/04/13 03:20:08;;;;;;;49.00;22.30;;;;;;;6.47;70.73;97790.70;67972;1276;1019627;-72
2023/04/13 03:23:09;;;;;;;49.60;23.00;;;;;;;6.51;70.56;97784.39;67967;1276;1016502;-72
2023/04/13 03:26:10;;;;;;;46.10;21.30;;;;;;;6.49;70.78;97782.08;67968;1276;1018060;-62
2023/04/13 03:29:11;;;;;;;51.50;23.00;;;;;;;6.53;70.35;97786.70;67928;1275;1016376;-72
2023/04/13 03:32:12;;;;;;;55.60;23.30;;;;;;;6.61;70.41;97787.94;67972;1276;1016233;-72
2023/04/13 03:35:13;;;;;;;62.20;25.90;;;;;;;6.72;70.33;97785.34;67921;1276;1016408;-72
2023/04/13 03:38:14;;;;;;;59.70;26.00;;;;;;;6.72;70.42;97784.14;68013;1275;1015872;-72
2023/04/13 03:41:15;;;;;;;56.10;24.80;;;;;;;6.66;70.43;97786.39;68013;1275;1016428;-72
2023/04/13 03:44:16;;;;;;;49.00;22.70;;;;;;;6.67;70.47;97783.90;68048;1275;1016438;-72
2023/04/13 03:47:17;;;;;;;52.40;24.50;;;;;;;6.75;70.99;97781.00;67988;1275;1016156;-69
2023/04/13 03:50:18;;;;;;;46.80;21.90;;;;;;;6.67;71.51;97783.55;68049;1276;1016493;-73
2023/04/13 03:53:19;;;;;;;47.10;20.60;;;;;;;6.63;72.08;97788.86;67979;1276;1016215;-59
2023/04/13 03:56:20;;;;;;;49.80;22.10;;;;;;;6.59;72.21;97785.96;68025;1275;1016748;-59
2023/04/13 03:59:21;;;;;;;48.80;22.70;;;;;;;6.64;73.16;97785.64;67995;1275;1016492;-68
2023/04/13 04:02:22;;;;;;;49.10;21.60;;;;;;;6.78;72.44;97782.02;68055;1275;1016278;-69
2023/04/13 04:05:23;;;;;;;50.80;23.30;;;;;;;6.80;72.11;97785.73;67949;1275;1016255;-69
2023/04/13 04:08:24;;;;;;;48.10;22.20;;;;;;;6.91;72.16;97787.98;68020;1275;1019704;-72
2023/04/13 04:11:25;;;;;;;53.30;22.40;;;;;;;6.93;72.19;97789.98;67960;1275;1016450;-70
2023/04/13 04:14:26;;;;;;;52.70;23.30;;;;;;;6.88;72.64;97791.46;67993;1275;1016428;-70
2023/04/13 04:17:27;;;;;;;48.70;22.90;;;;;;;6.86;72.77;97788.48;67980;1275;1016741;-69
2023/04/13 04:20:28;;;;;;;52.00;23.40;;;;;;;6.88;72.43;97788.37;68017;1276;1019857;-72
2023/04/13 04:23:29;;;;;;;47.20;20.80;;;;;;;6.90;71.64;97782.12;67974;1275;1016380;-59
2023/04/13 04:26:31;;;;;;;46.80;21.20;;;;;;;6.79;71.82;97777.63;68012;1275;1016673;-72
2023/04/13 04:29:33;;;;;;;54.60;23.30;;;;;;;6.75;72.45;97776.48;67941;1275;1015945;-73
2023/04/13 04:32:35;;;;;;;50.50;22.40;;;;;;;6.77;72.97;97780.00;68014;1275;1016902;-71
2023/04/13 04:35:42;;;;;;;46.80;21.30;;;;;;;6.85;72.95;97782.79;68022;1275;1016157;-72
2023/04/13 04:38:43;;;;;;;42.10;19.70;;;;;;;7.08;73.36;97781.91;68010;1275;1016441;-71
2023/04/13 04:41:44;;;;;;;47.10;22.20;;;;;;;7.26;73.65;97781.41;68005;1275;1016429;-73
2023/04/13 04:44:48;;;;;;;43.40;20.10;;;;;;;7.40;73.53;97781.61;68042;1275;1016402;-71
2023/04/13 04:47:51;;;;;;;47.00;20.80;;;;;;;7.63;73.80;97780.79;67956;1275;1016434;-65
2023/04/13 04:50:52;;;;;;;45.70;20.10;;;;;;;8.02;73.44;97784.70;67998;1276;1016377;-71
2023/04/13 04:53:53;;;;;;;45.90;19.90;;;;;;;8.29;73.31;97781.13;67999;1275;1016390;-72
2023/04/13 04:56:56;;;;;;;45.10;20.90;;;;;;;8.67;72.86;97783.61;68009;1275;1016380;-71
2023/04/13 04:59:58;;;;;;;42.10;19.20;;;;;;;9.04;72.94;97784.14;67961;1275;1016572;-70
2023/04/13 05:03:00;;;;;;;48.60;22.80;;;;;;;9.34;72.38;97784.09;67986;1275;1017556;-69
2023/04/13 05:06:01;;;;;;;46.20;23.50;;;;;;;9.69;72.46;97785.02;67983;1275;1016180;-70
2023/04/13 05:09:04;;;;;;;47.10;23.80;;;;;;;10.08;72.49;97783.06;67997;1275;1016473;-71
2023/04/13 05:12:06;;;;;;;51.60;24.50;;;;;;;10.39;72.45;97789.96;67970;1275;1015989;-71
2023/04/13 05:15:07;;;;;;;50.70;24.40;;;;;;;10.75;71.52;97789.14;67969;1275;1016480;-70
2023/04/13 05:18:08;;;;;;;50.80;23.00;;;;;;;10.99;70.68;97781.86;67998;1275;1016339;-66
2023/04/13 05:21:09;;;;;;;48.70;23.90;;;;;;;11.19;70.69;97781.42;67957;1275;1016350;-71
2023/04/13 05:24:10;;;;;;;40.70;20.30;;;;;;;11.40;70.94;97780.13;68009;1275;1016034;-71
2023/04/13 05:27:12;;;;;;;44.00;21.80;;;;;;;11.68;70.88;97774.89;67951;1275;1016405;-71
2023/04/13 05:30:13;;;;;;;39.30;19.60;;;;;;;12.21;69.49;97775.50;68005;1275;1016393;-71
2023/04/13 05:33:15;;;;;;;38.60;19.00;;;;;;;12.36;68.82;97772.28;68029;1275;1016453;-71
2023/04/13 05:36:17;;;;;;;42.00;19.80;;;;;;;12.40;68.46;97768.96;68051;1275;1016418;-71
2023/04/13 05:39:18;;;;;;;38.60;19.50;;;;;;;12.37;69.03;97774.31;68018;1275;1016007;-71
2023/04/13 05:42:19;;;;;;;36.00;17.50;;;;;;;12.30;69.50;97776.77;67987;1275;1018599;-69
2023/04/13 05:45:20;;;;;;;39.70;19.60;;;;;;;12.34;68.77;97781.00;68020;1275;1015761;-71
2023/04/13 05:48:21;;;;;;;36.30;17.60;;;;;;;12.40;68.89;97787.50;67966;1275;1016395;-71
2023/04/13 05:51:22;;;;;;;37.20;18.60;;;;;;;12.32;69.58;97789.27;67988;1275;1016534;-71
2023/04/13 05:54:23;;;;;;;35.60;17.60;;;;;;;12.36;69.49;97789.31;67969;1275;1016615;-71
2023/04/13 05:57:24;;;;;;;35.20;18.60;;;;;;;12.42;69.21;97794.19;68009;1275;1016882;-71
2023/04/13 06:00:26;;;;;;;35.70;17.70;;;;;;;12.52;68.99;97798.27;67980;1275;1016331;-71
2023/04/13 06:03:28;;;;;;;35.30;18.50;;;;;;;12.61;68.93;97799.24;68003;1275;1015907;-71
2023/04/13 06:06:29;;;;;;;39.40;17.00;;;;;;;12.66;68.72;97800.23;67993;1275;1016329;-72
2023/04/13 06:09:31;;;;;;;38.40;18.20;;;;;;;12.74;68.77;97799.23;68011;1254;1016502;-71
2023/04/13 06:12:32;;;;;;;38.90;17.20;;;;;;;12.78;68.91;97797.98;68056;1275;1016144;-71
2023/04/13 06:15:33;;;;;;;35.50;17.50;;;;;;;12.88;68.48;97799.23;67995;1275;1016641;-71
2023/04/13 06:18:34;;;;;;;34.90;16.80;;;;;;;13.04;67.93;97803.47;68007;1276;1016395;-70
2023/04/13 06:21:35;;;;;;;35.40;17.10;;;;;;;13.21;67.19;97803.73;67996;1275;1016383;-71
2023/04/13 06:24:36;;;;;;;33.60;15.80;;;;;;;13.25;67.24;97801.79;68050;1261;1016428;-72
2023/04/13 06:27:37;;;;;;;36.80;17.80;;;;;;;13.22;67.86;97797.84;67944;1276;1018861;-71
2023/04/13 06:30:38;;;;;;;35.20;16.90;;;;;;;13.33;67.59;97802.30;67970;1275;1015899;-71
2023/04/13 06:33:39;;;;;;;36.70;17.50;;;;;;;13.64;66.99;97800.44;67982;1275;1019058;-67
2023/04/13 06:36:40;;;;;;;31.50;15.00;;;;;;;13.81;66.37;97796.84;68021;1275;1016318;-71
2023/04/13 06:39:41;;;;;;;31.70;15.30;;;;;;;13.91;66.16;97792.55;67999;1275;1016471;-71
2023/04/13 06:42:42;;;;;;;33.20;16.00;;;;;;;14.08;66.19;97793.15;67995;1275;1016302;-71
2023/04/13 10:40:16;;;;;;;18.50;5.70;;;;;;;22.66;43.89;97774.30;132430;1301;557520;-67
2023/04/13 10:43:19;;;;;;;18.50;5.70;;;;;;;24.26;38.58;97768.15;134580;1289;84268;-66
2023/04/13 10:46:21;;;;;;;19.30;5.90;;;;;;;24.81;38.68;97767.63;134699;1289;22559;-66
2023/04/13 10:49:23;;;;;;;18.10;5.60;;;;;;;25.07;37.43;97769.67;134706;1289;22529;-66
2023/04/13 10:52:27;;;;;;;17.20;4.00;;;;;;;25.14;36.44;97769.10;134721;1289;22536;-66
2023/04/13 10:55:29;;;;;;;18.30;4.90;;;;;;;24.69;37.20;97764.42;134683;1289;22672;-65
2023/04/13 10:58:32;;;;;;;14.20;4.00;;;;;;;24.57;36.27;97761.84;134699;1289;22530;-65
2023/04/13 11:01:35;;;;;;;15.80;3.70;;;;;;;24.29;35.99;97762.38;134700;1266;24288;-65
2023/04/13 11:04:38;;;;;;;15.00;3.90;;;;;;;24.03;36.60;97763.90;134700;1289;22536;-65
2023/04/13 11:07:40;;;;;;;19.10;6.00;;;;;;;23.97;36.53;97770.61;134677;1289;22548;-65
2023/04/13 11:10:43;;;;;;;18.60;5.90;;;;;;;24.01;36.32;97771.08;134687;1289;22540;-65
2023/04/13 11:13:46;;;;;;;13.40;4.50;;;;;;;24.47;36.18;97766.39;134703;1289;25921;-65
2023/04/13 11:16:48;;;;;;;18.10;5.20;;;;;;;24.57;35.08;97764.15;134669;1289;25281;-66
2023/04/13 11:19:51;;;;;;;16.50;4.00;;;;;;;24.44;34.93;97766.60;134715;1289;22544;-65
2023/04/13 11:22:56;;;;;;;15.90;4.00;;;;;;;24.36;34.92;97769.95;134682;1289;22544;-65
2023/04/13 11:26:00;;;;;;;25.60;9.70;;;;;;;24.36;35.00;97772.01;134670;1289;22539;-65
2023/04/13 11:29:03;;;;;;;23.00;8.50;;;;;;;24.37;34.06;97768.54;134705;1289;22576;-65
2023/04/13 11:32:05;;;;;;;18.90;4.70;;;;;;;24.20;34.32;97769.05;134704;1289;24361;-65
2023/04/13 11:35:09;;;;;;;18.40;5.60;;;;;;;24.17;34.66;97770.58;134702;1289;22543;-66
2023/04/13 11:38:11;;;;;;;21.90;7.70;;;;;;;24.79;34.73;97762.24;134694;1289;22601;-66
2023/04/13 11:41:13;;;;;;;22.10;7.00;;;;;;;24.67;34.74;97761.88;134686;1289;22559;-65
2023/04/13 11:44:16;;;;;;;20.10;5.80;;;;;;;24.92;34.67;97767.67;134689;1289;22540;-65
2023/04/13 11:47:18;;;;;;;19.50;5.90;;;;;;;24.90;34.46;97767.02;134699;1289;22690;-66
2023/04/13 11:50:21;;;;;;;19.40;6.30;;;;;;;25.01;33.83;97766.11;134696;1289;22539;-66
2023/04/13 11:53:24;;;;;;;17.80;5.80;;;;;;;25.07;33.25;97760.98;134690;1289;22543;-65
2023/04/13 11:56:26;;;;;;;20.90;5.80;;;;;;;24.84;33.20;97757.83;134706;1289;22543;-65
2023/04/13 11:59:28;;;;;;;20.00;6.00;;;;;;;24.48;33.14;97758.02;134689;1289;23949;-65
2023/04/13 12:02:31;;;;;;;15.40;4.30;;;;;;;23.82;33.57;97762.23;134645;1289;22552;-65
2023/04/13 12:05:33;;;;;;;16.20;4.50;;;;;;;23.09;34.20;97762.88;134666;1289;24050;-66
2023/04/13 12:08:36;;;;;;;15.60;4.60;;;;;;;23.11;33.91;97763.91;134675;1289;22552;-65
2023/04/13 12:11:39;;;;;;;17.30;4.70;;;;;;;23.01;34.43;97763.08;134692;1289;22565;-65
2023/04/13 12:14:42;;;;;;;15.10;4.70;;;;;;;23.33;34.81;97759.52;134702;1289;22538;-66
2023/04/13 12:17:45;;;;;;;16.60;4.90;;;;;;;23.93;35.24;97751.72;134689;1289;25524;-66
2023/04/13 12:20:48;;;;;;;16.90;5.20;;;;;;;24.92;34.49;97746.33;134685;1289;22554;-66
2023/04/13 12:23:50;;;;;;;17.90;5.60;;;;;;;25.47;34.35;97746.43;134684;1289;22546;-66
2023/04/13 12:26:52;;;;;;;15.20;4.60;;;;;;;25.75;33.10;97741.29;134698;1289;22544;-66
2023/04/13 12:29:55;;;;;;;15.20;4.60;;;;;;;25.79;32.35;97746.55;134663;1289;22539;-65
2023/04/13 12:32:57;;;;;;;16.90;4.30;;;;;;;26.17;32.91;97744.13;134680;1289;25348;-66
2023/04/13 12:36:00;;;;;;;19.50;6.00;;;;;;;25.92;33.03;97743.02;134678;1271;22530;-66
2023/04/13 12:39:02;;;;;;;13.60;4.20;;;;;;;25.77;31.99;97738.01;134692;1289;22540;-65
2023/04/13 12:42:05;;;;;;;19.40;5.50;;;;;;;25.48;32.51;97732.67;134695;1289;22541;-65
2023/04/13 12:45:07;;;;;;;15.70;4.70;;;;;;;25.75;32.64;97741.29;134686;1289;22537;-65
2023/04/13 12:48:09;;;;;;;14.20;4.20;;;;;;;25.86;32.67;97738.20;134682;1268;22560;-66
2023/04/13 12:51:12;;;;;;;16.10;4.30;;;;;;;25.97;31.86;97733.90;134696;1289;22536;-66
2023/04/13 12:54:16;;;;;;;15.80;4.40;;;;;;;25.77;32.00;97742.39;134717;1276;25483;-66
2023/04/13 12:57:19;;;;;;;15.10;4.80;;;;;;;26.01;32.19;97734.41;134682;1289;22546;-66
2023/04/13 13:00:21;;;;;;;15.00;4.50;;;;;;;26.21;31.97;97735.30;134700;1289;24380;-66
2023/04/13 13:03:23;;;;;;;15.00;4.30;;;;;;;26.33;32.00;97730.59;134658;1289;22547;-66
2023/04/13 13:06:26;;;;;;;14.70;4.20;;;;;;;26.46;31.56;97719.74;134658;1289;22548;-66
2023/04/13 13:09:29;;;;;;;15.90;4.60;;;;;;;26.29;30.94;97716.06;134680;1289;22536;-66
2023/04/13 13:12:31;;;;;;;17.60;4.20;;;;;;;26.18;31.81;97719.11;134698;1289;24273;-66
2023/04/13 13:15:33;;;;;;;14.90;4.10;;;;;;;26.12;31.28;97716.55;134710;1289;22552;-66
2023/04/13 13:18:36;;;;;;;15.80;4.30;;;;;;;26.32;31.24;97713.20;134668;1289;24360;-66
2023/04/13 13:21:38;;;;;;;15.20;4.60;;;;;;;26.03;31.34;97717.23;134823;1286;22540;-66
2023/04/13 13:24:41;;;;;;;15.40;4.20;;;;;;;26.01;31.52;97723.62;134846;1286;25314;-66
2023/04/13 13:27:43;;;;;;;16.30;4.60;;;;;;;26.19;31.40;97727.90;134814;1286;22535;-66
2023/04/13 13:30:45;;;;;;;14.00;4.40;;;;;;;25.91;31.49;97730.05;134812;1286;25249;-66
2023/04/13 13:33:47;;;;;;;15.80;4.30;;;;;;;25.82;31.72;97732.19;134816;1286;24212;-66
2023/04/13 13:36:50;;;;;;;16.80;5.10;;;;;;;25.76;32.04;97735.88;134833;1286;24984;-66
2023/04/13 13:39:52;;;;;;;12.30;3.90;;;;;;;25.91;32.40;97738.91;134837;1286;22540;-67
2023/04/13 13:42:55;;;;;;;14.90;4.00;;;;;;;26.12;31.31;97736.88;134845;1286;22553;-66
2023/04/13 13:45:57;;;;;;;13.30;3.60;;;;;;;25.79;30.90;97729.52;134827;1286;22556;-66
2023/04/13 13:49:00;;;;;;;14.60;3.90;;;;;;;25.12;30.52;97728.76;134850;1286;22536;-66
2023/04/13 13:52:02;;;;;;;13.10;4.00;;;;;;;24.65;32.30;97730.58;134840;1286;22543;-66
2023/04/13 13:55:05;;;;;;;17.10;4.00;;;;;;;24.58;32.23;97733.64;134784;1286;25259;-66
2023/04/13 13:58:07;;;;;;;12.90;3.70;;;;;;;24.42;32.00;97734.33;134802;1286;22536;-66
2023/04/13 14:01:10;;;;;;;16.50;3.90;;;;;;;24.01;31.75;97733.65;134845;1273;22533;-66
2023/04/13 14:04:12;;;;;;;14.90;3.60;;;;;;;23.76;32.50;97735.52;134842;1286;22532;-66
2023/04/13 14:07:15;;;;;;;15.50;4.20;;;;;;;23.73;32.52;97738.20;134803;1286;22536;-67
2023/04/13 14:10:17;;;;;;;11.40;3.40;;;;;;;24.21;32.94;97736.29;134818;1286;22646;-66
2023/04/13 14:13:19;;;;;;;17.90;4.50;;;;;;;24.65;32.53;97735.95;134822;1286;22537;-67
2023/04/13 14:16:22;;;;;;;13.90;3.60;;;;;;;24.60;32.70;97732.40;134857;1286;22565;-67
2023/04/13 14:19:24;;;;;;;13.00;3.70;;;;;;;24.60;31.87;97732.08;134817;1286;22541;-67
2023/04/13 14:22:26;;;;;;;13.00;3.70;;;;;;;24.46;31.63;97731.77;134830;1286;24216;-67
2023/04/13 14:25:29;;;;;;;13.30;3.40;;;;;;;24.83;32.32;97736.31;134822;1286;22532;-67
2023/04/13 14:28:32;;;;;;;15.60;3.90;;;;;;;24.84;32.35;97741.00;134829;1286;25388;-67
2023/04/13 14:31:34;;;;;;;11.20;3.50;;;;;;;24.33;32.43;97743.23;134834;1286;22563;-67
2023/04/13 14:34:37;;;;;;;15.40;3.80;;;;;;;23.91;32.48;97742.30;134815;1286;22536;-67
2023/04/13 14:37:39;;;;;;;11.70;3.50;;;;;;;23.24;32.62;97747.08;134845;1268;24219;-68
2023/04/13 14:40:41;;;;;;;13.80;3.50;;;;;;;22.75;33.43;97749.44;134845;1286;22543;-67
2023/04/13 14:43:44;;;;;;;12.40;3.40;;;;;;;22.58;33.46;97751.31;134841;1268;22525;-67
2023/04/13 14:46:46;;;;;;;14.00;3.70;;;;;;;22.20;33.80;97757.70;134836;1286;22555;-66
2023/04/13 14:49:48;;;;;;;15.70;3.80;;;;;;;21.87;34.17;97759.30;134873;1286;22540;-65
2023/04/13 14:52:51;;;;;;;15.60;4.00;;;;;;;21.58;34.81;97761.48;134855;1286;24225;-65
2023/04/13 14:55:56;;;;;;;18.30;5.10;;;;;;;21.42;34.74;97766.25;134918;1286;22535;-65
2023/04/13 14:58:58;;;;;;;15.80;4.50;;;;;;;21.45;34.92;97763.73;134824;1286;22538;-65
2023/04/13 15:02:01;;;;;;;14.50;3.40;;;;;;;21.38;34.71;97761.72;134856;1286;22540;-65
2023/04/13 15:05:04;;;;;;;14.50;3.30;;;;;;;21.29;35.20;97764.66;134857;1286;22540;-65
2023/04/13 15:08:07;;;;;;;12.90;3.80;;;;;;;21.18;35.18;97769.33;134901;1286;23158;-65
2023/04/13 15:11:09;;;;;;;14.20;3.50;;;;;;;21.14;35.11;97772.23;134789;1286;22537;-64
2023/04/13 15:14:12;;;;;;;11.10;3.30;;;;;;;21.00;35.42;97773.70;134839;1286;22536;-65
2023/04/13 15:17:14;;;;;;;13.60;3.70;;;;;;;20.94;35.84;97769.98;134849;1270;22633;-65
2023/04/13 15:20:16;;;;;;;12.50;3.30;;;;;;;20.91;35.93;97763.89;134822;1286;22533;-65
2023/04/13 15:23:19;;;;;;;16.10;4.00;;;;;;;20.89;35.52;97767.30;134828;1284;22549;-65
2023/04/13 15:26:22;;;;;;;15.70;4.00;;;;;;;20.79;35.69;97769.92;134822;1286;22533;-64
2023/04/13 15:29:25;;;;;;;13.90;3.90;;;;;;;20.80;35.96;97768.95;134803;1286;22544;-65
2023/04/13 15:32:27;;;;;;;;;;;;;;;20.69;36.17;97768.83;134836;1277;24266;-65
2023/04/13 15:35:29;;;;;;;14.70;3.80;;;;;;;20.53;36.56;97770.38;134857;1286;22533;-65
2023/04/13 15:38:32;;;;;;;;;;;;;;;20.54;36.69;97771.30;134822;1286;22530;-65
2023/04/13 15:41:34;;;;;;;19.50;5.70;;;;;;;20.30;37.01;97776.03;134843;1286;22544;-65
2023/04/13 15:44:36;;;;;;;;;;;;;;;20.25;37.33;97778.29;134844;1286;22514;-65
2023/04/13 15:47:39;;;;;;;19.20;5.00;;;;;;;20.27;37.31;97782.98;135158;1282;24241;-66
2023/04/13 15:50:41;;;;;;;25.50;6.80;;;;;;;20.35;37.38;97780.58;135133;1282;22530;-66
2023/04/13 15:53:43;;;;;;;;;;;;;;;20.33;37.40;97781.73;135159;1282;25369;-66
2023/04/13 15:56:46;;;;;;;18.40;4.60;;;;;;;20.31;37.48;97778.66;135120;1282;22534;-66
2023/04/13 15:59:48;;;;;;;;;;;;;;;20.14;37.63;97778.15;135157;1282;22526;-66
2023/04/13 16:02:50;;;;;;;20.70;5.30;;;;;;;20.11;37.70;97774.26;135140;1273;22543;-67
2023/04/13 16:05:53;;;;;;;;;;;;;;;20.05;37.81;97774.23;135161;1282;22523;-64
2023/04/13 16:08:55;;;;;;;19.60;5.60;;;;;;;19.93;37.70;97775.27;135111;1282;22536;-65
2023/04/13 16:12:01;;;;;;;;;;;;;;;19.69;37.82;97778.67;135161;1282;22511;-65
2023/04/13 16:15:05;;;;;;;24.80;6.90;;;;;;;19.48;38.01;97780.35;135148;1282;22537;-65
2023/04/13 16:18:07;;;;;;;29.10;8.70;;;;;;;19.35;38.26;97781.77;135143;1282;24209;-64
2023/04/13 16:21:09;;;;;;;;;;;;;;;19.37;38.24;97785.49;135098;1282;22518;-65
2023/04/13 16:24:12;;;;;;;28.90;8.40;;;;;;;19.19;38.62;97784.36;135208;1282;22529;-65
2023/04/13 16:27:14;;;;;;;;;;;;;;;19.01;39.21;97788.33;135137;1281;22523;-65
2023/04/13 16:30:16;;;;;;;31.20;8.70;;;;;;;18.92;39.77;97787.02;135125;1282;22541;-65
2023/04/13 16:33:19;;;;;;;;;;;;;;;18.79;40.12;97794.46;135167;1282;22566;-67
2023/04/13 16:36:22;;;;;;;26.90;5.80;;;;;;;18.78;40.32;97792.99;135152;1282;22516;-65
2023/04/13 16:39:25;;;;;;;26.40;7.10;;;;;;;18.75;40.35;97797.07;135175;1282;22526;-65
2023/04/13 16:42:27;;;;;;;30.60;8.90;;;;;;;18.68;40.84;97796.02;135188;1282;22534;-65
2023/04/13 16:45:30;;;;;;;;;;;;;;;18.53;41.35;97802.98;135146;1282;22511;-65
2023/04/13 16:48:32;;;;;;;50.80;17.70;;;;;;;18.42;41.88;97800.16;135569;1273;22523;-65
2023/04/13 16:51:35;;;;;;;;;;;;;;;18.44;43.28;97803.41;135600;1278;22514;-65
2023/04/13 16:54:38;;;;;;;36.50;11.50;;;;;;;18.23;43.92;97800.75;135604;1278;22530;-65
2023/04/13 16:57:40;;;;;;;38.00;11.70;;;;;;;18.05;44.04;97806.66;135636;1267;24247;-66
2023/04/13 17:00:43;;;;;;;;;;;;;;;17.83;44.70;97807.33;135653;1278;22558;-64
2023/04/13 17:03:45;;;;;;;30.60;9.30;;;;;;;17.78;45.31;97813.54;135624;1278;22521;-63
2023/04/13 17:06:47;;;;;;;;;;;;;;;17.89;45.72;97812.39;135641;1278;22519;-64
2023/04/13 17:09:50;;;;;;;25.40;7.50;;;;;;;17.96;46.73;97815.92;135631;1278;22541;-64
2023/04/13 17:12:53;;;;;;;26.90;8.50;;;;;;;17.73;46.92;97825.70;135629;1278;22543;-63
2023/04/13 17:15:55;;;;;;;46.40;16.40;;;;;;;17.48;46.91;97826.89;135601;1278;22607;-64
2023/04/13 17:18:57;;;;;;;;;;;;;;;17.41;46.95;97829.45;135622;1278;22516;-64
2023/04/13 17:22:00;;;;;;;156.80;68.70;;;;;;;17.24;47.54;97836.32;135663;1278;22605;-63
2023/04/13 17:25:02;;;;;;;288.70;113.50;;;;;;;17.08;47.99;97837.61;135631;1278;23969;-63
2023/04/13 17:28:05;;;;;;;280.90;118.70;;;;;;;17.01;48.51;97836.81;135613;1278;23427;-63
2023/04/13 17:31:07;;;;;;;83.80;35.70;;;;;;;16.95;48.67;97838.21;135607;1278;22648;-64
2023/04/13 17:34:10;;;;;;;130.50;57.40;;;;;;;16.81;48.79;97839.48;135663;1278;22540;-63
2023/04/13 17:37:12;;;;;;;;;;;;;;;16.56;49.65;97842.40;135469;1278;22561;-63
2023/04/13 17:40:15;;;;;;;92.00;40.90;;;;;;;16.49;50.14;97842.52;135630;1278;22615;-63
2023/04/13 17:43:18;;;;;;;68.20;32.70;;;;;;;16.25;50.44;97839.77;135572;1270;22568;-63
2023/04/13 17:46:21;;;;;;;48.10;21.50;;;;;;;16.28;51.03;97843.52;135418;1278;22526;-64
2023/04/13 17:49:24;;;;;;;46.80;18.20;;;;;;;16.42;50.40;97845.33;135521;1278;22545;-63